createdAt,value
2018-08-10T00:02:05.055Z,96487.42
2018-08-10T00:04:35.336Z,96485.45
2018-08-10T00:07:05.270Z,96500.17
2018-08-10T00:09:35.237Z,96514.75
2018-08-10T00:12:05.236Z,96515.93
2018-08-10T00:14:35.492Z,96515.20
2018-08-10T00:17:05.372Z,96522.85
2018-08-10T00:19:35.263Z,96518.51
2018-08-10T00:22:05.315Z,96521.93
2018-08-10T00:24:35.350Z,96522.02
2018-08-10T00:27:05.566Z,96527.42
2018-08-10T00:29:35.746Z,96516.73
2018-08-10T00:32:05.731Z,96524.56
2018-08-10T00:34:35.648Z,96524.38
2018-08-10T00:37:06.264Z,96525.73
2018-08-10T00:43:11.700Z,96533.52
2018-08-10T00:45:41.692Z,96531.01
2018-08-10T00:48:11.640Z,96532.55
2018-08-10T00:50:41.560Z,96526.33
2018-08-10T00:53:11.376Z,96538.73
2018-08-10T00:55:41.793Z,96535.05
2018-08-10T00:58:11.718Z,96540.10
2018-08-10T01:00:41.730Z,96548.24
2018-08-10T01:03:11.672Z,96535.30
2018-08-10T01:05:41.580Z,96543.41
2018-08-10T01:08:11.490Z,96544.75
2018-08-10T01:10:41.377Z,96546.95
2018-08-10T01:13:11.289Z,96543.91
2018-08-10T01:15:41.326Z,96550.02
2018-08-10T01:18:11.626Z,96552.78
2018-08-10T01:20:41.523Z,96557.40
2018-08-10T01:23:11.642Z,96554.50
2018-08-10T01:25:41.550Z,96564.58
2018-08-10T01:28:11.497Z,96567.38
2018-08-10T01:30:41.588Z,96574.08
2018-08-10T01:33:11.508Z,96577.33
2018-08-10T01:35:41.434Z,96581.91
2018-08-10T01:38:11.388Z,96579.64
2018-08-10T01:40:41.285Z,96579.50
2018-08-10T01:43:11.235Z,96579.95
2018-08-10T01:45:41.452Z,96591.52
2018-08-10T01:48:11.684Z,96606.31
2018-08-10T01:50:41.543Z,96603.69
2018-08-10T01:53:11.585Z,96604.71
2018-08-10T01:55:41.493Z,96617.33
2018-08-10T01:58:12.279Z,96623.97
2018-08-10T02:00:42.171Z,96619.89
2018-08-10T02:03:12.510Z,96611.67
2018-08-10T02:05:42.352Z,96623.39
2018-08-10T02:08:12.292Z,96627.48
2018-08-10T02:10:42.335Z,96630.00
2018-08-10T02:13:12.173Z,96636.72
2018-08-10T02:15:41.987Z,96642.78
2018-08-10T02:18:12.197Z,96641.83
2018-08-10T02:20:42.203Z,96643.72
2018-08-10T02:23:12.097Z,96641.28
2018-08-10T02:25:42.293Z,96640.80
2018-08-10T02:28:12.173Z,96643.67
2018-08-10T02:30:43.219Z,96651.75
2018-08-10T02:33:13.063Z,96659.61
2018-08-10T02:35:42.973Z,96668.19
2018-08-10T02:38:13.173Z,96664.10
2018-08-10T02:40:43.231Z,96678.66
2018-08-10T02:43:13.607Z,96679.84
2018-08-10T02:45:43.473Z,96685.03
2018-08-10T02:48:13.735Z,96683.19
2018-08-10T02:50:43.715Z,96690.52
2018-08-10T02:53:13.828Z,96692.55
2018-08-10T02:55:44.175Z,96693.34
2018-08-10T02:58:14.095Z,96698.58
2018-08-10T03:00:44.134Z,96697.20
2018-08-10T03:03:14.105Z,96694.72
2018-08-10T03:05:45.065Z,96702.06
2018-08-10T03:08:14.977Z,96709.20
2018-08-10T03:10:45.193Z,96710.64
2018-08-10T03:13:15.441Z,96702.22
2018-08-10T03:15:45.636Z,96702.28
2018-08-10T03:18:15.824Z,96700.78
2018-08-10T03:20:45.721Z,96707.00
2018-08-10T03:23:15.623Z,96718.20
2018-08-10T03:25:45.600Z,96717.65
2018-08-10T03:28:15.426Z,96729.08
2018-08-10T03:30:45.571Z,96732.92
2018-08-10T03:33:15.494Z,96738.90
2018-08-10T03:35:45.440Z,96735.64
2018-08-10T03:38:15.322Z,96739.52
2018-08-10T03:40:45.244Z,96739.01
2018-08-10T03:43:15.659Z,96728.42
2018-08-10T03:45:45.522Z,96728.00
2018-08-10T03:48:15.444Z,96738.64
2018-08-10T03:50:45.722Z,96736.48
2018-08-10T03:53:15.991Z,96743.56
2018-08-10T03:56:39.849Z,96747.45
2018-08-10T03:59:10.192Z,96749.25
2018-08-10T04:01:40.453Z,96748.14
2018-08-10T04:04:10.394Z,96750.47
2018-08-10T04:06:40.535Z,96750.86
2018-08-10T04:09:12.083Z,96753.11
2018-08-10T04:11:42.968Z,96758.22
2018-08-10T04:14:13.196Z,96753.08
2018-08-10T04:27:31.227Z,96781.30
2018-08-10T04:30:01.151Z,96772.30
2018-08-10T04:32:31.229Z,96783.77
2018-08-10T04:35:01.033Z,96784.70
2018-08-10T04:37:31.067Z,96787.59
2018-08-10T04:40:41.205Z,96779.07
2018-08-10T04:43:11.087Z,96777.39
2018-08-10T04:45:40.882Z,96787.10
2018-08-10T04:48:10.885Z,96782.08
2018-08-10T04:50:40.869Z,96785.08
2018-08-10T04:53:10.687Z,96792.35
2018-08-10T04:55:40.613Z,96791.84
2018-08-10T04:58:10.895Z,96792.94
2018-08-10T05:00:41.144Z,96791.47
2018-08-10T05:03:41.411Z,96798.33
2018-08-10T05:06:11.467Z,96797.61
2018-08-10T05:08:41.499Z,96801.49
2018-08-10T05:11:11.383Z,96800.31
2018-08-10T05:13:41.270Z,96798.56
2018-08-10T05:16:11.319Z,96804.44
2018-08-10T05:18:41.331Z,96807.41
2018-08-10T05:21:11.325Z,96810.66
2018-08-10T05:23:41.775Z,96813.07
2018-08-10T05:26:11.629Z,96810.45
2018-08-10T05:28:41.548Z,96819.14
2018-08-10T05:31:11.841Z,96822.52
2018-08-10T05:33:41.823Z,96823.31
2018-08-10T05:36:11.665Z,96833.86
2018-08-10T05:38:41.566Z,96839.33
2018-08-10T05:41:11.905Z,96838.31
2018-08-10T05:43:42.149Z,96843.27
2018-08-10T05:46:45.918Z,96847.97
2018-08-10T05:49:16.328Z,96851.28
2018-08-10T05:51:46.202Z,96853.98
2018-08-10T05:54:16.376Z,96854.55
2018-08-10T05:56:46.183Z,96850.59
2018-08-10T05:59:16.046Z,96856.31
2018-08-10T06:01:45.882Z,96860.27
2018-08-10T06:04:15.645Z,96867.16
2018-08-10T06:06:45.836Z,96868.29
2018-08-10T06:09:16.274Z,96864.42
2018-08-10T06:11:46.116Z,96860.68
2018-08-10T06:14:16.087Z,96862.92
2018-08-10T06:16:45.912Z,96860.70
2018-08-10T06:19:15.824Z,96862.70
2018-08-10T06:21:46.642Z,96861.35
2018-08-10T06:24:16.668Z,96857.20
2018-08-10T06:26:46.556Z,96865.45
2018-08-10T06:29:16.374Z,96866.70
2018-08-10T06:31:46.198Z,96861.82
2018-08-10T06:41:27.817Z,96872.80
2018-08-10T06:43:57.769Z,96875.52
2018-08-10T06:46:27.592Z,96875.72
2018-08-10T06:48:57.562Z,96885.55
2018-08-10T06:51:27.394Z,96888.75
2018-08-10T06:53:57.386Z,96885.20
2018-08-10T06:56:27.202Z,96889.69
2018-08-10T06:58:57.082Z,96883.08
2018-08-10T07:01:26.988Z,96888.97
2018-08-10T07:03:57.039Z,96891.40
2018-08-10T07:10:43.378Z,96889.04
2018-08-10T07:13:13.355Z,96886.50
2018-08-10T07:15:43.341Z,96892.46
2018-08-10T07:18:13.406Z,96884.93
2018-08-10T07:20:43.280Z,96893.16
2018-08-10T07:23:13.520Z,96891.97
2018-08-10T07:25:43.392Z,96899.22
2018-08-10T07:28:13.258Z,96898.58
2018-08-10T07:30:43.098Z,96896.52
2018-08-10T07:33:12.932Z,96900.80
2018-08-10T07:35:42.826Z,96899.55
2018-08-10T07:38:12.658Z,96898.56
2018-08-10T07:40:42.546Z,96905.53
2018-08-10T07:43:12.444Z,96902.34
2018-08-10T07:45:42.452Z,96890.80
2018-08-10T07:48:12.265Z,96895.84
2018-08-10T07:50:42.130Z,96893.08
2018-08-10T07:53:12.359Z,96896.75
2018-08-10T07:55:42.839Z,96892.74
2018-08-10T07:58:13.232Z,96893.27
2018-08-10T08:00:44.185Z,96901.99
2018-08-10T08:03:14.635Z,96907.20
2018-08-10T08:05:45.178Z,96905.23
2018-08-10T08:12:40.396Z,96910.66
2018-08-10T08:15:10.850Z,96904.14
2018-08-10T08:17:41.785Z,96908.75
2018-08-10T08:20:12.562Z,96911.64
2018-08-10T08:22:43.114Z,96910.91
2018-08-10T08:25:13.587Z,96906.87
2018-08-10T08:27:44.110Z,96906.09
2018-08-10T08:30:14.626Z,96904.39
2018-08-10T08:32:45.499Z,96914.11
2018-08-10T08:35:16.572Z,96910.10
2018-08-10T08:37:47.001Z,96915.77
2018-08-10T08:40:25.501Z,96912.56
2018-08-10T08:42:55.919Z,96912.63
2018-08-10T08:45:51.121Z,96900.73
2018-08-10T08:48:22.749Z,96898.23
2018-08-10T08:50:55.745Z,96898.86
2018-08-10T08:53:26.273Z,96894.69
2018-08-10T08:56:04.787Z,96895.82
2018-08-10T08:58:35.917Z,96895.26
2018-08-10T09:01:07.954Z,96889.27
2018-08-10T09:04:59.513Z,96886.48
2018-08-10T09:07:30.568Z,96895.11
2018-08-10T09:10:02.258Z,96892.14
2018-08-10T09:12:32.827Z,96895.05
2018-08-10T09:15:05.211Z,96895.38
2018-08-10T09:17:35.693Z,96886.05
2018-08-10T09:23:42.873Z,96891.48
2018-08-10T09:26:13.597Z,96889.02
2018-08-10T09:28:44.292Z,96884.73
2018-08-10T09:31:14.759Z,96886.55
2018-08-10T09:33:45.271Z,96884.83
2018-08-10T09:36:15.730Z,96883.66
2018-08-10T09:38:46.158Z,96884.42
2018-08-10T09:41:17.054Z,96881.86
2018-08-10T09:43:47.483Z,96874.73
2018-08-10T09:46:18.016Z,96879.80
2018-08-10T09:48:48.768Z,96868.40
2018-08-10T09:51:19.467Z,96873.84
2018-08-10T09:53:49.908Z,96874.97
2018-08-10T09:56:20.376Z,96871.12
2018-08-10T09:58:51.373Z,96869.81
2018-08-10T10:01:24.556Z,96870.39
2018-08-10T10:03:55.826Z,96869.61
2018-08-10T10:06:26.309Z,96870.48
2018-08-10T10:08:57.307Z,96861.78
2018-08-10T10:11:27.999Z,96862.28
2018-08-10T10:13:58.773Z,96864.08
2018-08-10T10:16:29.518Z,96858.12
2018-08-10T10:19:00.602Z,96861.63
2018-08-10T10:21:30.999Z,96858.38
2018-08-10T10:24:01.605Z,96849.59
2018-08-10T10:26:31.979Z,96858.02
2018-08-10T10:29:02.331Z,96856.53
2018-08-10T10:31:32.731Z,96854.19
2018-08-10T10:34:03.537Z,96845.55
2018-08-10T10:36:33.967Z,96854.91
2018-08-10T10:39:06.745Z,96847.44
2018-08-10T10:41:37.314Z,96850.23
2018-08-10T10:44:08.818Z,96848.25
2018-08-10T10:46:39.267Z,96848.75
2018-08-10T10:49:10.637Z,96845.17
2018-08-10T10:51:41.300Z,96843.13
2018-08-10T10:54:11.815Z,96835.31
2018-08-10T10:56:42.246Z,96840.59
2018-08-10T10:59:12.929Z,96840.07
2018-08-10T11:01:43.360Z,96838.84
2018-08-10T11:04:13.885Z,96825.96
2018-08-10T11:10:20.890Z,96832.64
2018-08-10T11:12:51.599Z,96830.56
2018-08-10T11:15:22.036Z,96832.31
2018-08-10T11:17:52.477Z,96824.88
2018-08-10T11:20:22.995Z,96827.67
2018-08-10T11:22:53.466Z,96819.44
2018-08-10T11:25:24.045Z,96819.61
2018-08-10T11:27:54.455Z,96810.69
2018-08-10T11:30:25.356Z,96814.83
2018-08-10T11:32:56.347Z,96817.28
2018-08-10T11:35:27.128Z,96822.75
2018-08-10T11:37:57.754Z,96812.48
2018-08-10T11:40:28.279Z,96806.81
2018-08-10T11:42:58.922Z,96807.27
2018-08-10T11:45:29.350Z,96812.17
2018-08-10T11:47:59.767Z,96803.32
2018-08-10T11:50:30.182Z,96813.88
2018-08-10T11:53:00.567Z,96807.17
2018-08-10T11:55:31.480Z,96803.94
2018-08-10T11:58:02.040Z,96804.11
2018-08-10T12:00:32.521Z,96803.87
2018-08-10T12:03:02.993Z,96803.61
2018-08-10T12:05:33.471Z,96803.75
2018-08-10T12:08:03.840Z,96799.17
2018-08-10T12:10:34.309Z,96796.34
2018-08-10T12:13:04.755Z,96799.16
2018-08-10T12:15:35.168Z,96790.37
2018-08-10T12:18:05.763Z,96794.41
2018-08-10T12:20:36.237Z,96798.55
2018-08-10T12:23:06.658Z,96795.53
2018-08-10T12:25:37.131Z,96789.02
2018-08-10T12:28:07.741Z,96786.36
2018-08-10T12:30:38.240Z,96787.64
2018-08-10T12:33:08.714Z,96787.99
2018-08-10T12:35:39.477Z,96794.36
2018-08-10T12:38:09.852Z,96783.68
2018-08-10T12:40:40.531Z,96788.31
2018-08-10T12:43:10.859Z,96787.06
2018-08-10T12:45:43.223Z,96785.52
2018-08-10T12:48:13.745Z,96782.38
2018-08-10T12:50:44.427Z,96790.06
2018-08-10T12:53:15.396Z,96788.53
2018-08-10T12:55:45.745Z,96787.33
2018-08-10T12:58:16.203Z,96787.94
2018-08-10T13:00:47.132Z,96785.71
2018-08-10T13:03:18.091Z,96789.18
2018-08-10T13:05:48.642Z,96782.09
2018-08-10T13:08:19.356Z,96785.81
2018-08-10T13:10:50.604Z,96782.24
2018-08-10T13:13:21.092Z,96780.12
2018-08-10T13:15:51.605Z,96781.02
2018-08-10T13:18:22.163Z,96782.09
2018-08-10T13:20:53.162Z,96780.27
2018-08-10T13:23:24.665Z,96775.47
2018-08-10T13:25:55.132Z,96773.22
2018-08-10T13:32:02.118Z,96770.91
2018-08-10T13:34:32.580Z,96764.33
2018-08-10T13:37:03.466Z,96767.51
2018-08-10T13:39:33.892Z,96769.86
2018-08-10T13:42:04.452Z,96763.67
2018-08-10T13:45:39.118Z,96769.67
2018-08-10T13:48:09.606Z,96761.00
2018-08-10T13:50:40.122Z,96765.98
2018-08-10T13:53:10.715Z,96760.41
2018-08-10T13:55:41.354Z,96766.28
2018-08-10T13:58:11.751Z,96763.23
2018-08-10T14:00:42.119Z,96763.37
2018-08-10T14:03:13.259Z,96758.81
2018-08-10T14:05:44.265Z,96758.81
2018-08-10T14:08:14.978Z,96753.87
2018-08-10T14:10:46.048Z,96751.36
2018-08-10T14:13:16.522Z,96746.28
2018-08-10T14:15:46.999Z,96755.84
2018-08-10T14:18:17.716Z,96750.25
2018-08-10T14:20:48.597Z,96750.30
2018-08-10T14:23:19.774Z,96743.88
2018-08-10T14:25:50.204Z,96740.41
2018-08-10T14:28:20.718Z,96737.31
2018-08-10T14:30:51.846Z,96742.08
2018-08-10T14:33:22.641Z,96736.48
2018-08-10T14:35:53.358Z,96736.08
2018-08-10T14:38:23.833Z,96731.39
2018-08-10T14:40:54.421Z,96726.87
2018-08-10T14:47:00.815Z,96723.55
2018-08-10T14:49:31.329Z,96724.66
2018-08-10T14:52:02.635Z,96721.73
2018-08-10T14:54:33.253Z,96715.87
2018-08-10T14:57:03.749Z,96716.34
2018-08-10T15:03:10.812Z,96718.05
2018-08-10T15:05:41.312Z,96717.47
2018-08-10T15:08:12.457Z,96714.08
2018-08-10T15:10:43.334Z,96710.54
2018-08-10T15:13:14.351Z,96708.55
2018-08-10T15:15:47.897Z,96704.80
2018-08-10T15:18:18.581Z,96703.55
2018-08-10T15:20:50.617Z,96704.78
2018-08-10T15:23:21.279Z,96701.50
2018-08-10T15:25:51.759Z,96704.30
2018-08-10T15:28:22.339Z,96702.61
2018-08-10T15:30:53.001Z,96700.61
2018-08-10T15:33:23.581Z,96704.38
2018-08-10T15:35:54.210Z,96704.66
2018-08-10T15:38:24.707Z,96698.77
2018-08-10T15:40:56.303Z,96700.00
2018-08-10T15:43:26.862Z,96698.45
2018-08-10T15:45:58.131Z,96695.22
2018-08-10T15:48:28.597Z,96695.20
2018-08-10T15:50:59.127Z,96695.34
2018-08-10T15:53:30.131Z,96703.23
2018-08-10T15:56:00.650Z,96688.69
2018-08-10T15:58:31.997Z,96691.58
2018-08-10T16:01:02.573Z,96689.30
2018-08-10T16:03:33.243Z,96689.83
2018-08-10T16:06:03.911Z,96689.87
2018-08-10T16:08:34.653Z,96697.08
2018-08-10T16:11:05.568Z,96689.64
2018-08-10T16:13:36.377Z,96693.36
2018-08-10T16:16:07.148Z,96685.32
2018-08-10T16:18:37.807Z,96686.54
2018-08-10T16:21:08.700Z,96687.32
2018-08-10T16:23:39.739Z,96678.95
2018-08-10T16:26:10.923Z,96683.30
2018-08-10T16:28:41.527Z,96680.98
2018-08-10T16:31:12.193Z,96677.56
2018-08-10T16:33:43.027Z,96675.07
2018-08-10T16:36:14.604Z,96673.55
2018-08-10T16:38:45.190Z,96681.09
2018-08-10T16:41:15.804Z,96676.94
2018-08-10T16:43:46.864Z,96681.12
2018-08-10T16:46:21.086Z,96676.95
2018-08-10T16:48:51.913Z,96677.56
2018-08-10T16:51:22.372Z,96675.55
2018-08-10T16:53:52.863Z,96667.48
2018-08-10T16:56:23.506Z,96672.94
2018-08-10T16:58:54.236Z,96678.20
2018-08-10T17:01:25.186Z,96673.33
2018-08-10T17:03:56.302Z,96671.19
2018-08-10T17:06:26.746Z,96674.25
2018-08-10T17:09:41.118Z,96667.93
2018-08-10T17:12:11.588Z,96667.20
2018-08-10T17:14:42.067Z,96668.13
2018-08-10T17:17:12.693Z,96668.13
2018-08-10T17:19:43.186Z,96675.55
2018-08-10T17:22:14.160Z,96671.97
2018-08-10T17:24:44.954Z,96670.74
2018-08-10T17:27:15.490Z,96666.67
2018-08-10T17:29:46.038Z,96664.98
2018-08-10T17:32:16.756Z,96663.09
2018-08-10T17:34:47.710Z,96666.48
2018-08-10T17:37:18.209Z,96661.61
2018-08-10T17:39:48.634Z,96663.52
2018-08-10T17:42:19.496Z,96663.88
2018-08-10T17:44:49.995Z,96657.27
2018-08-10T17:54:32.044Z,96665.78
2018-08-10T17:57:02.742Z,96663.95
2018-08-10T17:59:33.261Z,96662.33
2018-08-10T18:02:03.799Z,96662.80
2018-08-10T18:04:34.296Z,96661.90
2018-08-10T18:07:05.084Z,96655.64
2018-08-10T18:09:35.907Z,96658.19
2018-08-10T18:12:06.332Z,96654.25
2018-08-10T18:14:37.295Z,96652.92
2018-08-10T18:17:08.633Z,96658.78
2018-08-10T18:20:40.001Z,96662.62
2018-08-10T18:23:10.603Z,96671.85
2018-08-10T18:25:41.253Z,96663.27
2018-08-10T18:28:11.750Z,96672.82
2018-08-10T18:30:42.276Z,96668.11
2018-08-10T18:33:12.884Z,96666.19
2018-08-10T18:35:43.328Z,96667.66
2018-08-10T18:38:13.998Z,96667.41
2018-08-10T18:40:44.557Z,96668.58
2018-08-10T18:43:15.590Z,96677.05
2018-08-10T18:45:46.744Z,96669.03
2018-08-10T18:48:17.430Z,96670.23
2018-08-10T18:50:48.032Z,96674.27
2018-08-10T18:53:18.554Z,96667.03
2018-08-10T18:55:49.391Z,96674.61
2018-08-10T18:58:20.023Z,96672.63
2018-08-10T19:00:50.671Z,96674.80
2018-08-10T19:03:21.118Z,96678.50
2018-08-10T19:05:51.603Z,96685.87
2018-08-10T19:08:22.174Z,96682.55
2018-08-10T19:10:53.070Z,96686.26
2018-08-10T19:13:23.596Z,96688.45
2018-08-10T19:15:54.370Z,96687.43
2018-08-10T19:18:24.940Z,96687.97
2018-08-10T19:20:55.608Z,96692.13
2018-08-10T19:23:26.404Z,96699.20
2018-08-10T19:25:56.814Z,96700.25
2018-08-10T19:28:27.258Z,96705.12
2018-08-10T19:30:58.090Z,96702.59
2018-08-10T19:33:28.630Z,96710.84
2018-08-10T19:35:59.476Z,96707.30
2018-08-10T19:38:30.312Z,96707.80
2018-08-10T19:41:03.898Z,96703.39
2018-08-10T19:43:35.634Z,96703.16
2018-08-10T19:46:06.650Z,96705.66
2018-08-10T19:48:38.196Z,96699.27
2018-08-10T19:51:08.805Z,96696.77
2018-08-10T19:53:39.556Z,96706.72
2018-08-10T19:56:10.053Z,96704.98
2018-08-10T19:58:40.738Z,96697.20
2018-08-10T20:01:11.281Z,96706.56
2018-08-10T20:03:41.728Z,96705.66
2018-08-10T20:06:12.184Z,96708.43
2018-08-10T20:08:42.684Z,96707.05
2018-08-10T20:11:13.202Z,96708.80
2018-08-10T20:13:44.032Z,96709.82
2018-08-10T20:16:14.622Z,96710.94
2018-08-10T20:18:45.540Z,96710.34
2018-08-10T20:21:18.687Z,96714.75
2018-08-10T20:23:49.175Z,96712.77
2018-08-10T20:26:19.689Z,96710.00
2018-08-10T20:28:50.212Z,96699.88
2018-08-10T20:31:21.511Z,96699.28
2018-08-10T20:33:52.053Z,96699.72
2018-08-10T20:36:22.967Z,96697.80
2018-08-10T20:38:53.467Z,96704.89
2018-08-10T20:41:24.929Z,96708.72
2018-08-10T20:43:56.401Z,96720.15
2018-08-10T20:46:26.916Z,96721.38
2018-08-10T20:48:56.925Z,96716.07
2018-08-10T20:51:27.141Z,96714.04
2018-08-10T20:53:57.038Z,96710.38
2018-08-10T20:56:26.993Z,96711.03
2018-08-10T20:58:56.949Z,96710.86
2018-08-10T21:01:26.913Z,96715.97
2018-08-10T21:03:56.916Z,96712.72
2018-08-10T21:06:27.345Z,96715.25
2018-08-10T21:08:57.746Z,96714.79
2018-08-10T21:11:28.623Z,96717.39
2018-08-10T21:13:58.708Z,96719.42
2018-08-10T21:16:28.626Z,96713.67
2018-08-10T21:18:58.641Z,96709.34
2018-08-10T21:21:29.349Z,96702.88
2018-08-10T21:23:59.719Z,96704.98
2018-08-10T21:26:30.820Z,96699.94
2018-08-10T21:32:38.177Z,96695.61
2018-08-10T21:35:08.887Z,96697.12
2018-08-10T21:37:38.879Z,96692.00
2018-08-10T21:40:10.629Z,96698.86
2018-08-10T21:42:42.159Z,96704.98
2018-08-10T21:52:24.234Z,96714.14
2018-08-10T21:54:54.139Z,96712.53
2018-08-10T21:57:24.105Z,96713.91
2018-08-10T21:59:54.312Z,96716.53
2018-08-10T22:02:25.568Z,96719.72
2018-08-10T22:04:56.547Z,96715.16
2018-08-10T22:07:26.585Z,96722.05
2018-08-10T22:09:56.639Z,96723.33
2018-08-10T22:12:26.726Z,96718.77
2018-08-10T22:15:02.602Z,96719.18
2018-08-10T22:17:38.568Z,96718.28
2018-08-10T22:20:08.583Z,96718.11
2018-08-10T22:22:38.638Z,96715.89
2018-08-10T22:25:08.640Z,96714.94
2018-08-10T22:27:39.099Z,96717.16
2018-08-10T22:30:09.247Z,96714.21
2018-08-10T22:32:39.402Z,96716.13
2018-08-10T22:35:09.607Z,96716.18
2018-08-10T22:37:39.589Z,96714.94
2018-08-10T22:40:10.016Z,96719.78
2018-08-10T22:42:40.230Z,96717.16
2018-08-10T22:45:10.205Z,96711.64
2018-08-10T22:47:41.711Z,96716.50
2018-08-10T22:50:12.274Z,96714.98
2018-08-10T22:53:39.195Z,96714.21
2018-08-10T22:56:09.561Z,96717.20
2018-08-10T22:58:39.813Z,96715.28
2018-08-10T23:01:09.736Z,96714.09
2018-08-10T23:03:40.014Z,96715.45
2018-08-10T23:06:09.954Z,96716.36
2018-08-10T23:08:39.943Z,96720.03
2018-08-10T23:11:09.963Z,96709.83
2018-08-10T23:13:41.037Z,96717.03
2018-08-10T23:16:11.508Z,96716.77
2018-08-10T23:18:42.455Z,96712.41
2018-08-10T23:21:12.655Z,96713.28
2018-08-10T23:23:42.805Z,96711.98
2018-08-10T23:26:13.301Z,96716.36
2018-08-10T23:29:39.730Z,96715.77
2018-08-10T23:32:09.696Z,96712.98
2018-08-10T23:34:41.212Z,96712.14
2018-08-10T23:37:11.562Z,96722.14
2018-08-10T23:39:43.633Z,96717.48
2018-08-10T23:42:13.683Z,96715.72
2018-08-10T23:44:44.663Z,96715.83
2018-08-10T23:47:14.969Z,96725.41
2018-08-10T23:49:45.056Z,96723.03
2018-08-10T23:52:16.765Z,96720.33
2018-08-10T23:54:47.083Z,96726.00
2018-08-10T23:57:18.385Z,96718.05
2018-08-10T23:59:50.511Z,96717.62
